createdAt,value
2022-10-15T00:00:08.564Z,13.53
2022-10-15T00:02:35.100Z,13.52
2022-10-15T00:05:01.693Z,13.52
2022-10-15T00:07:29.173Z,13.52
2022-10-15T00:09:55.715Z,13.56
2022-10-15T00:12:22.165Z,13.56
2022-10-15T00:14:48.624Z,13.59
2022-10-15T00:17:15.116Z,13.60
2022-10-15T00:19:41.538Z,13.61
2022-10-15T00:22:07.969Z,13.62
2022-10-15T00:24:34.434Z,13.58
2022-10-15T00:27:00.911Z,13.45
2022-10-15T00:29:27.379Z,13.55
2022-10-15T00:31:54.659Z,13.55
2022-10-15T00:34:21.098Z,13.51
2022-10-15T00:36:50.528Z,13.42
2022-10-15T00:39:17.565Z,13.34
2022-10-15T00:41:44.407Z,13.48
2022-10-15T00:44:25.890Z,13.49
2022-10-15T00:47:01.749Z,13.31
2022-10-15T00:49:35.801Z,13.48
2022-10-15T00:52:03.659Z,13.48
2022-10-15T00:54:34.275Z,13.48
2022-10-15T00:57:01.295Z,13.45
2022-10-15T00:59:29.692Z,13.37
2022-10-15T01:01:56.169Z,13.32
2022-10-15T01:04:23.623Z,13.30
2022-10-15T01:06:50.077Z,13.24
2022-10-15T01:09:16.634Z,13.21
2022-10-15T01:11:47.395Z,13.17
2022-10-15T01:14:19.847Z,13.16
2022-10-15T01:16:49.500Z,13.12
2022-10-15T01:19:53.509Z,12.92
2022-10-15T01:23:00.533Z,13.08
2022-10-15T01:25:53.766Z,13.05
2022-10-15T01:28:51.496Z,13.03
2022-10-15T01:31:35.930Z,13.02
2022-10-15T01:34:07.853Z,12.98
2022-10-15T01:36:39.641Z,12.96
2022-10-15T01:39:27.790Z,12.93
2022-10-15T01:42:04.185Z,12.91
2022-10-15T01:44:36.191Z,12.91
2022-10-15T01:47:09.777Z,12.92
2022-10-15T01:49:42.391Z,12.94
2022-10-15T01:52:14.495Z,12.96
2022-10-15T01:54:41.425Z,12.97
2022-10-15T01:57:10.846Z,12.94
2022-10-15T01:59:37.335Z,12.80
2022-10-15T02:02:03.811Z,12.87
2022-10-15T02:04:31.839Z,12.88
2022-10-15T02:07:27.132Z,12.85
2022-10-15T02:10:31.694Z,12.87
2022-10-15T02:13:13.361Z,12.85
2022-10-15T02:16:00.388Z,12.81
2022-10-15T02:18:38.621Z,12.82
2022-10-15T02:21:14.523Z,12.82
2022-10-15T02:23:58.340Z,12.83
2022-10-15T02:26:27.897Z,12.85
2022-10-15T02:28:56.925Z,12.85
2022-10-15T02:31:24.253Z,12.91
2022-10-15T02:33:55.355Z,12.95
2022-10-15T02:36:22.162Z,12.94
2022-10-15T02:38:50.892Z,12.97
2022-10-15T02:41:18.558Z,13.01
2022-10-15T02:43:44.967Z,13.02
2022-10-15T02:46:14.342Z,13.03
2022-10-15T02:48:40.817Z,13.03
2022-10-15T02:51:07.699Z,13.02
2022-10-15T02:53:34.220Z,13.00
2022-10-15T02:56:00.717Z,13.02
2022-10-15T02:58:29.129Z,13.05
2022-10-15T03:00:55.666Z,13.09
2022-10-15T03:03:22.955Z,13.09
2022-10-15T03:05:49.657Z,13.09
2022-10-15T03:08:16.128Z,13.12
2022-10-15T03:10:42.559Z,13.17
2022-10-15T03:13:09.128Z,13.15
2022-10-15T03:15:36.792Z,13.19
2022-10-15T03:18:04.014Z,13.15
2022-10-15T03:20:30.530Z,13.14
2022-10-15T03:22:57.047Z,13.15
2022-10-15T03:25:23.503Z,13.12
2022-10-15T03:27:52.847Z,13.19
2022-10-15T03:30:19.868Z,13.21
2022-10-15T03:32:47.758Z,13.21
2022-10-15T03:35:14.628Z,13.18
2022-10-15T03:37:41.048Z,13.15
2022-10-15T03:40:11.964Z,13.12
2022-10-15T03:42:41.178Z,13.12
2022-10-15T03:45:08.404Z,13.11
2022-10-15T03:47:34.880Z,13.10
2022-10-15T03:50:01.398Z,13.07
2022-10-15T03:52:28.124Z,13.04
2022-10-15T03:54:54.532Z,13.00
2022-10-15T03:57:21.012Z,12.99
2022-10-15T03:59:47.451Z,12.96
2022-10-15T04:02:13.894Z,12.97
2022-10-15T04:04:40.330Z,12.94
2022-10-15T04:07:06.761Z,12.92
2022-10-15T04:09:33.242Z,12.92
2022-10-15T04:11:59.645Z,12.93
2022-10-15T04:14:26.191Z,12.96
2022-10-15T04:16:52.609Z,13.01
2022-10-15T04:19:19.076Z,13.03
2022-10-15T04:21:45.549Z,13.04
2022-10-15T04:24:12.000Z,13.05
2022-10-15T04:26:38.497Z,13.08
2022-10-15T04:29:05.147Z,13.08
2022-10-15T04:31:31.922Z,13.11
2022-10-15T04:33:58.385Z,13.12
2022-10-15T04:36:25.202Z,12.84
2022-10-15T04:38:52.657Z,13.15
2022-10-15T04:41:19.090Z,13.16
2022-10-15T04:43:45.539Z,13.16
2022-10-15T04:46:12.097Z,13.11
2022-10-15T04:48:42.152Z,13.13
2022-10-15T04:51:15.669Z,13.12
2022-10-15T04:53:42.461Z,13.10
2022-10-15T04:56:13.698Z,13.12
2022-10-15T04:58:40.124Z,13.10
2022-10-15T05:01:08.622Z,13.09
2022-10-15T05:03:38.444Z,13.05
2022-10-15T05:06:10.151Z,13.04
2022-10-15T05:08:36.996Z,13.03
2022-10-15T05:11:09.206Z,13.00
2022-10-15T05:13:36.250Z,12.98
2022-10-15T05:16:29.503Z,12.85
2022-10-15T05:19:01.761Z,12.89
2022-10-15T05:21:29.091Z,12.91
2022-10-15T05:23:55.646Z,12.85
2022-10-15T05:26:25.223Z,12.88
2022-10-15T05:28:52.303Z,12.85
2022-10-15T05:31:21.963Z,12.85
2022-10-15T05:33:49.974Z,12.82
2022-10-15T05:36:18.154Z,12.87
2022-10-15T05:38:48.973Z,12.88
2022-10-15T05:41:15.914Z,12.91
2022-10-15T05:43:42.502Z,12.88
2022-10-15T05:46:09.312Z,12.88
2022-10-15T05:48:35.744Z,12.85
2022-10-15T05:51:04.186Z,12.82
2022-10-15T05:53:31.029Z,12.81
2022-10-15T05:56:00.995Z,12.65
2022-10-15T05:58:32.110Z,12.72
2022-10-15T06:01:03.317Z,12.68
2022-10-15T06:03:30.203Z,12.60
2022-10-15T06:05:56.589Z,12.54
2022-10-15T06:08:23.561Z,12.50
2022-10-15T06:10:49.987Z,12.48
2022-10-15T06:13:16.583Z,12.52
2022-10-15T06:15:44.947Z,12.52
2022-10-15T06:18:15.839Z,12.51
2022-10-15T06:20:43.618Z,12.25
2022-10-15T06:23:11.914Z,12.58
2022-10-15T06:25:38.456Z,12.59
2022-10-15T06:28:06.624Z,12.61
2022-10-15T06:30:33.458Z,12.63
2022-10-15T06:32:59.980Z,12.65
2022-10-15T06:35:30.274Z,12.67
2022-10-15T06:38:02.900Z,12.66
2022-10-15T06:40:30.350Z,12.70
2022-10-15T06:43:04.255Z,12.72
2022-10-15T06:45:30.768Z,12.71
2022-10-15T06:47:57.223Z,12.78
2022-10-15T06:50:23.739Z,12.81
2022-10-15T06:52:50.213Z,12.83
2022-10-15T06:55:16.703Z,12.90
2022-10-15T06:57:43.123Z,12.99
2022-10-15T07:00:10.061Z,13.06
2022-10-15T07:02:36.535Z,13.15
2022-10-15T07:05:02.968Z,13.18
2022-10-15T07:07:29.409Z,13.23
2022-10-15T07:09:56.036Z,13.32
2022-10-15T07:12:22.869Z,13.40
2022-10-15T07:14:49.971Z,13.51
2022-10-15T07:17:16.915Z,13.59
2022-10-15T07:19:44.020Z,13.65
2022-10-15T07:22:10.916Z,13.67
2022-10-15T07:24:37.345Z,13.80
2022-10-15T07:27:08.154Z,13.76
2022-10-15T07:29:44.774Z,14.00
2022-10-15T07:32:11.241Z,14.10
2022-10-15T07:34:37.656Z,14.18
2022-10-15T07:37:04.072Z,14.18
2022-10-15T07:39:30.510Z,14.32
2022-10-15T07:41:56.975Z,14.34
2022-10-15T07:44:23.401Z,14.40
2022-10-15T07:46:49.826Z,14.31
2022-10-15T07:49:16.374Z,14.43
2022-10-15T07:51:43.191Z,14.44
2022-10-15T07:54:09.625Z,14.46
2022-10-15T07:56:36.051Z,14.51
2022-10-15T07:59:02.630Z,14.35
2022-10-15T08:01:29.120Z,14.56
2022-10-15T08:03:55.635Z,14.60
2022-10-15T08:06:22.219Z,14.61
2022-10-15T08:08:48.823Z,14.65
2022-10-15T08:11:16.645Z,14.69
2022-10-15T08:13:44.682Z,14.73
2022-10-15T08:16:14.625Z,14.77
2022-10-15T08:18:43.077Z,14.66
2022-10-15T08:21:11.262Z,14.80
2022-10-15T08:23:37.776Z,14.84
2022-10-15T08:26:04.833Z,14.88
2022-10-15T08:28:33.548Z,14.83
2022-10-15T08:31:05.199Z,14.89
2022-10-15T08:33:34.338Z,15.00
2022-10-15T08:36:00.838Z,15.11
2022-10-15T08:38:27.328Z,15.17
2022-10-15T08:40:56.029Z,15.07
2022-10-15T08:43:25.069Z,15.09
2022-10-15T08:45:56.019Z,15.11
2022-10-15T08:48:41.106Z,15.18
2022-10-15T08:51:17.057Z,14.97
2022-10-15T08:53:49.617Z,14.75
2022-10-15T08:56:20.731Z,14.74
2022-10-15T08:59:38.549Z,15.04
2022-10-15T09:02:22.614Z,15.05
2022-10-15T09:05:26.892Z,15.01
2022-10-15T09:08:20.684Z,15.04
2022-10-15T09:10:53.529Z,15.05
2022-10-15T09:13:30.368Z,15.10
2022-10-15T09:16:05.294Z,15.30
2022-10-15T09:18:35.226Z,15.39
2022-10-15T09:21:05.260Z,15.40
2022-10-15T09:23:35.708Z,15.38
2022-10-15T09:26:34.575Z,15.51
2022-10-15T09:29:24.845Z,15.68
2022-10-15T09:32:00.224Z,15.72
2022-10-15T09:34:42.066Z,15.70
2022-10-15T09:37:19.685Z,15.85
2022-10-15T09:40:01.235Z,16.13
2022-10-15T09:42:49.002Z,16.24
2022-10-15T09:45:16.070Z,16.36
2022-10-15T09:47:43.865Z,16.46
2022-10-15T09:50:13.272Z,16.33
2022-10-15T09:53:24.526Z,16.64
2022-10-15T09:56:01.034Z,16.66
2022-10-15T09:58:38.625Z,16.69
2022-10-15T10:01:17.839Z,16.71
2022-10-15T10:03:44.290Z,16.76
2022-10-15T10:06:13.658Z,16.85
2022-10-15T10:08:59.961Z,17.02
2022-10-15T10:11:44.131Z,17.15
2022-10-15T10:14:23.560Z,16.92
2022-10-15T10:17:26.213Z,17.16
2022-10-15T10:20:18.119Z,17.24
2022-10-15T10:22:51.538Z,17.22
2022-10-15T10:25:27.510Z,17.22
2022-10-15T10:27:56.110Z,17.19
2022-10-15T10:30:23.274Z,17.06
2022-10-15T10:33:00.230Z,17.02
2022-10-15T10:35:52.523Z,17.22
2022-10-15T10:38:38.852Z,17.34
2022-10-15T10:41:10.149Z,17.44
2022-10-15T10:43:39.646Z,17.32
2022-10-15T10:46:18.180Z,17.27
2022-10-15T10:48:50.096Z,17.26
2022-10-15T10:51:19.734Z,17.28
2022-10-15T10:53:57.071Z,17.23
2022-10-15T10:56:30.218Z,17.26
2022-10-15T10:59:01.860Z,17.03
2022-10-15T11:01:29.301Z,17.11
2022-10-15T11:03:56.281Z,17.16
2022-10-15T11:06:42.278Z,17.20
2022-10-15T11:09:08.743Z,17.16
2022-10-15T11:11:47.521Z,17.20
2022-10-15T11:14:25.946Z,17.26
2022-10-15T11:16:58.397Z,17.34
2022-10-15T11:20:20.975Z,17.37
2022-10-15T11:22:31.427Z,17.46
2022-10-15T11:25:21.827Z,17.43
2022-10-15T11:28:00.239Z,17.51
2022-10-15T11:30:34.805Z,17.54
2022-10-15T11:33:19.423Z,17.58
2022-10-15T11:36:09.485Z,17.51
2022-10-15T11:38:49.757Z,17.53
2022-10-15T11:41:34.417Z,17.57
2022-10-15T11:44:11.525Z,17.63
2022-10-15T11:46:44.116Z,17.71
2022-10-15T11:49:22.241Z,17.74
2022-10-15T11:52:12.806Z,17.85
2022-10-15T11:54:43.483Z,17.54
2022-10-15T11:57:14.963Z,17.93
2022-10-15T11:59:56.936Z,18.01
2022-10-15T12:02:29.224Z,18.11
2022-10-15T12:05:08.379Z,18.20
2022-10-15T12:07:41.776Z,18.29
2022-10-15T12:10:31.192Z,18.19
2022-10-15T12:13:36.411Z,18.36
2022-10-15T12:16:25.049Z,18.40
2022-10-15T12:18:57.335Z,18.41
2022-10-15T12:21:51.704Z,18.46
2022-10-15T12:24:39.809Z,18.55
2022-10-15T12:27:34.743Z,18.60
2022-10-15T12:30:03.970Z,18.63
2022-10-15T12:32:37.826Z,18.61
2022-10-15T12:35:18.658Z,18.67
2022-10-15T12:37:48.079Z,18.58
2022-10-15T12:40:26.772Z,18.62
2022-10-15T12:42:55.826Z,18.68
2022-10-15T12:45:40.298Z,18.85
2022-10-15T12:48:16.067Z,18.79
2022-10-15T12:50:43.316Z,18.77
2022-10-15T12:53:29.841Z,18.77
2022-10-15T12:56:24.294Z,18.78
2022-10-15T12:58:51.748Z,18.78
2022-10-15T13:01:18.212Z,18.63
2022-10-15T13:03:50.859Z,18.54
2022-10-15T13:06:20.065Z,18.53
2022-10-15T13:08:51.863Z,18.56
2022-10-15T13:11:30.410Z,18.71
2022-10-15T13:14:07.685Z,18.78
2022-10-15T13:16:35.640Z,18.81
2022-10-15T13:19:03.315Z,19.02
2022-10-15T13:21:57.682Z,19.25
2022-10-15T13:24:27.052Z,19.23
2022-10-15T13:26:55.827Z,19.18
2022-10-15T13:29:25.099Z,19.22
2022-10-15T13:31:54.564Z,19.16
2022-10-15T13:34:30.233Z,19.25
2022-10-15T13:36:59.554Z,19.21
2022-10-15T13:39:43.863Z,19.23
2022-10-15T13:42:13.329Z,19.35
2022-10-15T13:44:40.596Z,19.47
2022-10-15T13:47:27.881Z,19.54
2022-10-15T13:50:24.331Z,19.60
2022-10-15T13:53:12.200Z,19.61
2022-10-15T13:55:44.001Z,19.68
2022-10-15T13:58:27.745Z,19.66
2022-10-15T14:01:09.278Z,19.61
2022-10-15T14:03:38.570Z,19.63
2022-10-15T14:06:28.496Z,19.56
2022-10-15T14:09:14.195Z,19.53
2022-10-15T14:11:40.728Z,19.48
2022-10-15T14:14:36.271Z,19.49
2022-10-15T14:17:09.015Z,19.42
2022-10-15T14:19:38.485Z,19.44
2022-10-15T14:22:05.687Z,19.33
2022-10-15T14:24:40.137Z,19.32
2022-10-15T14:27:22.356Z,19.13
2022-10-15T14:29:51.561Z,19.20
2022-10-15T14:32:20.687Z,19.26
2022-10-15T14:34:48.120Z,19.20
2022-10-15T14:37:47.218Z,19.12
2022-10-15T14:40:18.281Z,19.10
2022-10-15T14:43:03.140Z,19.01
2022-10-15T14:45:42.021Z,19.00
2022-10-15T14:48:18.741Z,18.76
2022-10-15T14:50:45.435Z,18.70
2022-10-15T14:53:18.776Z,18.46
2022-10-15T14:56:06.706Z,18.30
2022-10-15T14:58:33.222Z,18.11
2022-10-15T15:01:05.267Z,18.21
2022-10-15T15:03:42.880Z,18.21
2022-10-15T15:06:09.656Z,18.14
2022-10-15T15:08:36.092Z,18.11
2022-10-15T15:11:05.450Z,17.92
2022-10-15T15:13:38.527Z,18.02
2022-10-15T15:16:05.409Z,17.88
2022-10-15T15:18:32.063Z,17.79
2022-10-15T15:21:02.435Z,17.74
2022-10-15T15:23:29.786Z,17.64
2022-10-15T15:25:56.265Z,17.68
2022-10-15T15:28:25.672Z,17.55
2022-10-15T15:30:59.974Z,17.41
2022-10-15T15:33:28.300Z,17.40
2022-10-15T15:36:03.613Z,17.41
2022-10-15T15:38:33.047Z,17.31
2022-10-15T15:41:20.287Z,17.20
2022-10-15T15:43:47.384Z,17.10
2022-10-15T15:46:14.533Z,17.02
2022-10-15T15:48:41.188Z,16.96
2022-10-15T15:51:19.638Z,16.88
2022-10-15T15:53:46.425Z,16.80
2022-10-15T15:56:13.336Z,16.76
2022-10-15T15:58:39.747Z,16.79
2022-10-15T16:01:06.299Z,16.70
2022-10-15T16:03:32.774Z,16.62
2022-10-15T16:05:59.375Z,16.70
2022-10-15T16:08:25.851Z,16.59
2022-10-15T16:10:52.358Z,16.55
2022-10-15T16:13:18.842Z,16.55
2022-10-15T16:15:45.467Z,16.54
2022-10-15T16:18:12.252Z,16.54
2022-10-15T16:20:44.957Z,16.55
2022-10-15T16:23:14.638Z,16.58
2022-10-15T16:25:41.562Z,16.56
2022-10-15T16:28:08.349Z,16.51
2022-10-15T16:30:34.990Z,16.50
2022-10-15T16:33:01.549Z,16.48
2022-10-15T16:35:28.059Z,16.44
2022-10-15T16:37:56.121Z,16.40
2022-10-15T16:40:22.979Z,16.23
2022-10-15T16:42:49.493Z,16.35
2022-10-15T16:45:16.053Z,16.34
2022-10-15T16:47:42.572Z,16.35
2022-10-15T16:50:09.606Z,16.36
2022-10-15T16:52:36.214Z,16.32
2022-10-15T16:55:05.277Z,16.34
2022-10-15T16:57:31.761Z,16.31
2022-10-15T16:59:58.308Z,16.30
2022-10-15T17:02:25.040Z,16.32
2022-10-15T17:04:51.755Z,16.31
2022-10-15T17:07:18.275Z,16.29
2022-10-15T17:09:46.336Z,16.30
2022-10-15T17:12:12.800Z,16.27
2022-10-15T17:14:39.291Z,16.26
2022-10-15T17:17:07.662Z,16.26
2022-10-15T17:19:35.079Z,16.26
2022-10-15T17:22:01.680Z,16.24
2022-10-15T17:24:28.164Z,16.17
2022-10-15T17:26:54.791Z,16.17
2022-10-15T17:29:22.998Z,16.14
2022-10-15T17:31:50.515Z,16.13
2022-10-15T17:34:18.099Z,16.10
2022-10-15T17:36:47.323Z,16.09
2022-10-15T17:39:18.839Z,16.07
2022-10-15T17:41:46.116Z,16.03
2022-10-15T17:44:12.971Z,15.99
2022-10-15T17:46:39.980Z,15.96
2022-10-15T17:49:07.901Z,15.94
2022-10-15T17:51:34.858Z,15.89
2022-10-15T17:54:02.142Z,15.91
2022-10-15T17:56:31.353Z,15.81
2022-10-15T17:58:59.306Z,15.79
2022-10-15T18:01:56.187Z,15.75
2022-10-15T18:04:17.168Z,15.70
2022-10-15T18:06:44.914Z,15.70
2022-10-15T18:09:11.514Z,15.67
2022-10-15T18:11:38.028Z,15.66
2022-10-15T18:14:04.528Z,15.60
2022-10-15T18:16:32.353Z,15.56
2022-10-15T18:18:58.968Z,15.48
2022-10-15T18:21:27.422Z,15.44
2022-10-15T18:23:56.475Z,15.06
2022-10-15T18:26:23.839Z,15.29
2022-10-15T18:28:52.727Z,15.20
2022-10-15T18:31:19.944Z,15.12
2022-10-15T18:33:51.774Z,15.04
2022-10-15T18:36:24.763Z,15.00
2022-10-15T18:38:51.730Z,14.97
2022-10-15T18:41:19.798Z,14.90
2022-10-15T18:43:52.276Z,14.47
2022-10-15T18:46:19.138Z,14.74
2022-10-15T18:48:45.717Z,14.70
2022-10-15T18:51:12.541Z,14.78
2022-10-15T18:53:40.093Z,14.71
2022-10-15T18:56:08.007Z,14.77
2022-10-15T18:58:34.741Z,14.76
2022-10-15T19:01:13.268Z,14.77
2022-10-15T19:03:40.243Z,14.71
2022-10-15T19:06:06.688Z,14.69
2022-10-15T19:08:34.044Z,14.66
2022-10-15T19:11:06.041Z,14.65
2022-10-15T19:13:32.522Z,14.65
2022-10-15T19:16:01.824Z,14.63
2022-10-15T19:18:28.899Z,14.61
2022-10-15T19:20:55.356Z,14.58
2022-10-15T19:23:22.314Z,14.56
2022-10-15T19:25:48.759Z,14.55
2022-10-15T19:28:15.438Z,14.56
2022-10-15T19:30:42.013Z,14.51
2022-10-15T19:33:08.608Z,14.48
2022-10-15T19:35:41.892Z,14.29
2022-10-15T19:38:08.351Z,14.46
2022-10-15T19:40:38.842Z,14.44
2022-10-15T19:43:06.303Z,14.42
2022-10-15T19:45:43.549Z,14.42
2022-10-15T19:48:15.988Z,14.42
2022-10-15T19:50:44.688Z,14.38
2022-10-15T19:53:13.609Z,14.17
2022-10-15T19:55:40.411Z,14.33
2022-10-15T19:58:07.542Z,14.32
2022-10-15T20:00:34.495Z,14.31
2022-10-15T20:03:01.292Z,14.28
2022-10-15T20:05:27.827Z,14.22
2022-10-15T20:07:54.300Z,14.26
2022-10-15T20:10:25.565Z,14.19
2022-10-15T20:12:52.591Z,14.18
2022-10-15T20:15:19.067Z,14.12
2022-10-15T20:17:46.810Z,14.05
2022-10-15T20:20:13.358Z,14.03
2022-10-15T20:22:39.894Z,13.99
2022-10-15T20:25:06.604Z,13.95
2022-10-15T20:27:33.070Z,13.88
2022-10-15T20:29:59.545Z,13.89
2022-10-15T20:32:41.458Z,13.86
2022-10-15T20:35:08.767Z,13.81
2022-10-15T20:37:35.224Z,13.74
2022-10-15T20:40:01.699Z,13.72
2022-10-15T20:42:28.450Z,13.68
2022-10-15T20:44:55.138Z,13.59
2022-10-15T20:47:24.045Z,13.62
2022-10-15T20:49:53.486Z,13.56
2022-10-15T20:52:23.425Z,13.59
2022-10-15T20:54:51.281Z,13.57
2022-10-15T20:57:17.903Z,13.50
2022-10-15T20:59:44.365Z,13.52
2022-10-15T21:02:10.836Z,13.51
2022-10-15T21:04:37.325Z,13.52
2022-10-15T21:07:03.767Z,13.51
2022-10-15T21:09:30.200Z,13.50
2022-10-15T21:11:56.744Z,13.51
2022-10-15T21:14:23.724Z,13.51
2022-10-15T21:16:50.164Z,13.50
2022-10-15T21:19:16.707Z,13.52
2022-10-15T21:21:43.239Z,13.50
2022-10-15T21:24:09.678Z,13.51
2022-10-15T21:26:36.434Z,13.35
2022-10-15T21:29:03.441Z,13.26
2022-10-15T21:31:30.122Z,13.50
2022-10-15T21:33:57.137Z,13.49
2022-10-15T21:36:26.529Z,13.48
2022-10-15T21:38:58.930Z,13.44
2022-10-15T21:41:28.219Z,13.25
2022-10-15T21:43:54.891Z,13.23
2022-10-15T21:46:21.374Z,13.41
2022-10-15T21:48:47.910Z,13.37
2022-10-15T21:51:23.904Z,13.36
2022-10-15T21:53:50.920Z,13.29
2022-10-15T21:56:17.807Z,13.30
2022-10-15T21:58:44.664Z,13.15
2022-10-15T22:01:17.163Z,13.26
2022-10-15T22:03:46.040Z,13.26
2022-10-15T22:06:13.707Z,13.23
2022-10-15T22:08:40.514Z,13.20
2022-10-15T22:11:21.935Z,13.18
2022-10-15T22:13:51.906Z,13.17
2022-10-15T22:16:19.419Z,13.17
2022-10-15T22:18:46.220Z,13.16
2022-10-15T22:21:15.929Z,13.11
2022-10-15T22:23:48.346Z,13.14
2022-10-15T22:26:16.490Z,13.13
2022-10-15T22:28:44.891Z,13.13
2022-10-15T22:31:14.756Z,13.10
2022-10-15T22:33:41.748Z,13.10
2022-10-15T22:36:13.803Z,13.07
2022-10-15T22:38:41.438Z,13.06
2022-10-15T22:41:09.854Z,13.07
2022-10-15T22:43:36.824Z,12.96
2022-10-15T22:46:04.342Z,13.06
2022-10-15T22:48:35.706Z,13.04
2022-10-15T22:51:03.287Z,13.04
2022-10-15T22:53:30.329Z,13.05
2022-10-15T22:56:05.051Z,13.06
2022-10-15T22:58:32.674Z,13.12
2022-10-15T23:01:11.235Z,13.19
2022-10-15T23:03:38.905Z,13.18
2022-10-15T23:06:05.821Z,13.31
2022-10-15T23:08:34.201Z,13.37
2022-10-15T23:11:11.800Z,13.43
2022-10-15T23:13:39.894Z,13.45
2022-10-15T23:16:16.047Z,13.54
2022-10-15T23:18:43.767Z,13.59
2022-10-15T23:21:18.688Z,13.62
2022-10-15T23:23:45.695Z,13.62
2022-10-15T23:26:14.199Z,13.44
2022-10-15T23:28:41.104Z,13.71
2022-10-15T23:31:07.739Z,13.71
2022-10-15T23:33:34.628Z,13.64
2022-10-15T23:36:04.081Z,13.73
2022-10-15T23:38:31.170Z,13.73
2022-10-15T23:41:05.192Z,13.73
2022-10-15T23:43:31.874Z,13.74
2022-10-15T23:45:59.221Z,13.71
2022-10-15T23:48:25.820Z,13.70
2022-10-15T23:50:52.795Z,13.70
2022-10-15T23:53:19.793Z,13.68
2022-10-15T23:55:47.266Z,13.68
2022-10-15T23:58:14.364Z,13.65
